createdAt,value
2018-12-30T00:02:16.414Z,5.87
2018-12-30T00:04:53.923Z,6.57
2018-12-30T00:07:31.397Z,5.07
2018-12-30T00:10:08.995Z,5.47
2018-12-30T00:12:46.510Z,4.67
2018-12-30T00:15:24.757Z,4.93
2018-12-30T00:18:02.245Z,6.13
2018-12-30T00:20:39.716Z,4.80
2018-12-30T00:23:17.228Z,5.27
2018-12-30T00:25:54.704Z,5.13
2018-12-30T00:28:32.236Z,5.23
2018-12-30T00:31:09.706Z,4.87
2018-12-30T00:33:47.222Z,4.37
2018-12-30T00:36:24.722Z,5.60
2018-12-30T00:39:02.218Z,4.23
2018-12-30T00:41:39.692Z,5.03
2018-12-30T00:44:17.203Z,5.07
2018-12-30T00:46:54.696Z,4.93
2018-12-30T00:49:32.818Z,5.17
2018-12-30T00:52:10.297Z,4.70
2018-12-30T00:54:47.801Z,3.97
2018-12-30T00:57:25.295Z,4.53
2018-12-30T01:00:02.799Z,3.67
2018-12-30T01:02:40.284Z,4.53
2018-12-30T01:05:17.771Z,3.90
2018-12-30T01:07:55.304Z,4.33
2018-12-30T01:10:32.817Z,3.97
2018-12-30T01:13:10.300Z,4.97
2018-12-30T01:15:47.809Z,3.17
2018-12-30T01:18:25.324Z,4.37
2018-12-30T01:21:02.810Z,3.70
2018-12-30T01:23:40.298Z,3.80
2018-12-30T01:26:17.774Z,3.97
2018-12-30T01:28:55.298Z,3.20
2018-12-30T01:31:32.784Z,3.80
2018-12-30T01:34:10.283Z,3.73
2018-12-30T01:36:47.845Z,4.10
2018-12-30T01:39:25.269Z,2.90
2018-12-30T01:42:02.758Z,2.80
2018-12-30T01:44:40.261Z,3.13
2018-12-30T01:47:17.745Z,3.17
2018-12-30T01:49:55.243Z,3.67
2018-12-30T01:52:32.730Z,3.07
2018-12-30T01:55:10.251Z,3.57
2018-12-30T01:57:47.737Z,3.43
2018-12-30T02:00:25.230Z,2.27
2018-12-30T02:03:02.731Z,2.53
2018-12-30T02:05:40.228Z,2.57
2018-12-30T02:08:17.719Z,2.63
2018-12-30T02:10:55.224Z,2.40
2018-12-30T02:13:32.700Z,2.60
2018-12-30T02:16:10.199Z,2.57
2018-12-30T02:18:47.709Z,2.33
2018-12-30T02:21:26.546Z,2.50
2018-12-30T02:24:03.957Z,2.23
2018-12-30T02:26:41.438Z,1.80
2018-12-30T02:29:18.962Z,2.43
2018-12-30T02:31:56.456Z,3.00
2018-12-30T02:34:33.972Z,1.33
2018-12-30T02:37:11.470Z,1.40
2018-12-30T02:39:49.288Z,1.10
2018-12-30T02:42:26.770Z,1.13
2018-12-30T02:45:04.289Z,1.07
2018-12-30T02:47:41.769Z,1.00
2018-12-30T02:50:19.272Z,1.07
2018-12-30T02:52:56.763Z,0.60
2018-12-30T02:55:34.264Z,0.63
2018-12-30T02:58:11.752Z,0.17
2018-12-30T03:00:49.271Z,0.47
2018-12-30T03:03:26.767Z,0.20
2018-12-30T03:06:04.255Z,0.20
2018-12-30T03:08:41.735Z,0.10
2018-12-30T03:11:19.225Z,0.10
2018-12-30T03:13:56.705Z,0.13
2018-12-30T03:16:34.218Z,0.10
2018-12-30T03:19:11.686Z,0.20
2018-12-30T03:21:49.189Z,0.10
2018-12-30T03:24:26.693Z,0.10
2018-12-30T03:27:04.210Z,0.10
2018-12-30T03:29:41.743Z,0.20
2018-12-30T03:32:19.217Z,0.30
2018-12-30T03:34:56.719Z,0.10
2018-12-30T03:37:34.198Z,0.10
2018-12-30T03:40:12.251Z,0.20
2018-12-30T03:42:49.730Z,0.20
2018-12-30T03:45:27.246Z,0.10
2018-12-30T03:48:04.758Z,0.60
2018-12-30T03:50:42.251Z,0.20
2018-12-30T03:53:19.731Z,0.30
2018-12-30T03:55:57.231Z,0.10
2018-12-30T03:58:34.701Z,0.20
2018-12-30T04:01:12.226Z,0.27
2018-12-30T04:03:49.703Z,0.30
2018-12-30T04:06:27.208Z,0.30
2018-12-30T04:09:04.870Z,0.70
2018-12-30T04:11:42.361Z,2.47
2018-12-30T04:14:19.849Z,0.90
2018-12-30T04:16:57.392Z,3.40
2018-12-30T04:19:34.827Z,4.20
2018-12-30T04:22:16.785Z,3.77
2018-12-30T04:24:49.849Z,2.63
2018-12-30T04:27:27.328Z,4.37
2018-12-30T04:30:04.854Z,3.83
2018-12-30T04:32:42.345Z,4.93
2018-12-30T04:35:19.838Z,4.67
2018-12-30T04:37:57.328Z,5.00
2018-12-30T04:40:34.822Z,5.20
2018-12-30T04:43:12.296Z,5.10
2018-12-30T04:45:49.792Z,4.33
2018-12-30T04:48:27.275Z,3.27
2018-12-30T04:51:04.770Z,4.37
2018-12-30T04:53:42.250Z,3.00
2018-12-30T04:56:19.759Z,4.97
2018-12-30T04:58:57.235Z,5.13
2018-12-30T05:01:34.721Z,1.67
2018-12-30T05:04:12.214Z,3.40
2018-12-30T05:06:49.719Z,4.57
2018-12-30T05:09:27.202Z,4.63
2018-12-30T05:12:04.694Z,3.40
2018-12-30T05:14:42.198Z,3.70
2018-12-30T05:17:19.728Z,4.20
2018-12-30T05:19:57.212Z,3.30
2018-12-30T05:22:34.700Z,5.33
2018-12-30T05:25:12.192Z,5.77
2018-12-30T05:27:49.687Z,4.33
2018-12-30T05:30:27.203Z,4.17
2018-12-30T05:33:04.688Z,5.67
2018-12-30T05:35:42.186Z,6.50
2018-12-30T05:38:19.659Z,8.23
2018-12-30T05:40:57.186Z,4.90
2018-12-30T05:43:34.678Z,5.17
2018-12-30T05:46:12.179Z,5.70
2018-12-30T05:48:49.665Z,6.47
2018-12-30T05:51:27.443Z,6.20
2018-12-30T05:54:04.916Z,5.33
2018-12-30T05:56:42.425Z,5.27
2018-12-30T05:59:19.924Z,4.50
2018-12-30T06:01:57.403Z,4.70
2018-12-30T06:04:34.895Z,3.87
2018-12-30T06:07:12.391Z,5.17
2018-12-30T06:09:49.867Z,6.20
2018-12-30T06:12:27.365Z,3.97
2018-12-30T06:15:04.958Z,5.30
2018-12-30T06:17:42.471Z,5.03
2018-12-30T06:20:19.958Z,4.20
2018-12-30T06:22:57.456Z,4.90
2018-12-30T06:25:34.952Z,4.67
2018-12-30T06:28:12.484Z,6.70
2018-12-30T06:30:49.980Z,4.33
2018-12-30T06:33:27.458Z,6.17
2018-12-30T06:36:05.021Z,4.93
2018-12-30T06:38:42.499Z,4.40
2018-12-30T06:41:20.001Z,7.47
2018-12-30T06:43:57.464Z,4.43
2018-12-30T06:46:35.205Z,4.80
2018-12-30T06:49:12.677Z,4.43
2018-12-30T06:51:50.180Z,6.13
2018-12-30T06:54:27.643Z,5.67
2018-12-30T06:57:05.146Z,6.60
2018-12-30T06:59:42.640Z,9.03
2018-12-30T07:02:20.226Z,5.17
2018-12-30T07:04:57.697Z,5.83
2018-12-30T07:07:35.187Z,4.70
2018-12-30T07:10:12.652Z,7.60
2018-12-30T07:12:50.162Z,5.70
2018-12-30T07:15:27.644Z,8.57
2018-12-30T07:18:05.147Z,5.37
2018-12-30T07:20:42.619Z,9.37
2018-12-30T07:23:20.147Z,6.57
2018-12-30T07:25:57.631Z,5.10
2018-12-30T07:28:35.145Z,6.97
2018-12-30T07:31:12.657Z,7.73
2018-12-30T07:33:50.138Z,7.50
2018-12-30T07:36:27.648Z,8.10
2018-12-30T07:39:05.135Z,7.40
2018-12-30T07:41:42.992Z,6.30
2018-12-30T07:44:20.474Z,6.93
2018-12-30T07:46:57.975Z,6.07
2018-12-30T07:49:35.470Z,7.87
2018-12-30T07:52:12.990Z,7.37
2018-12-30T07:54:50.476Z,7.20
2018-12-30T07:57:27.985Z,6.53
2018-12-30T08:00:05.488Z,6.80
2018-12-30T08:02:43.855Z,8.80
2018-12-30T08:05:21.335Z,4.20
2018-12-30T08:07:58.827Z,9.63
2018-12-30T08:10:36.293Z,7.30
2018-12-30T08:13:13.796Z,5.10
2018-12-30T08:15:51.277Z,6.30
2018-12-30T08:18:28.796Z,4.63
2018-12-30T08:21:06.412Z,5.67
2018-12-30T08:23:43.930Z,5.87
2018-12-30T08:26:21.401Z,7.23
2018-12-30T08:28:58.939Z,4.23
2018-12-30T08:31:36.434Z,5.97
2018-12-30T08:34:13.949Z,7.53
2018-12-30T08:36:51.458Z,6.37
2018-12-30T08:39:28.962Z,8.07
2018-12-30T08:42:06.447Z,6.97
2018-12-30T08:44:43.922Z,9.07
2018-12-30T08:47:21.425Z,6.23
2018-12-30T08:49:58.900Z,7.87
2018-12-30T08:52:36.408Z,6.23
2018-12-30T08:55:13.904Z,8.40
2018-12-30T08:57:51.404Z,8.33
2018-12-30T09:00:28.870Z,6.57
2018-12-30T09:03:06.383Z,3.80
2018-12-30T09:05:43.873Z,3.50
2018-12-30T09:08:21.385Z,8.97
2018-12-30T09:10:58.863Z,3.37
2018-12-30T09:13:36.375Z,6.60
2018-12-30T09:16:13.870Z,4.00
2018-12-30T09:18:51.877Z,7.53
2018-12-30T09:21:29.351Z,6.83
2018-12-30T09:24:06.847Z,5.00
2018-12-30T09:26:44.328Z,5.73
2018-12-30T09:29:21.848Z,6.50
2018-12-30T09:31:59.338Z,6.47
2018-12-30T09:34:36.846Z,6.13
2018-12-30T09:37:14.346Z,4.60
2018-12-30T09:39:51.828Z,6.03
2018-12-30T09:42:29.363Z,8.90
2018-12-30T09:45:06.942Z,7.17
2018-12-30T09:47:44.476Z,7.57
2018-12-30T09:50:21.943Z,8.87
2018-12-30T09:52:59.446Z,7.87
2018-12-30T09:55:36.922Z,7.67
2018-12-30T09:58:14.410Z,5.37
2018-12-30T10:00:51.895Z,4.90
2018-12-30T10:03:29.407Z,7.57
2018-12-30T10:06:06.888Z,4.37
2018-12-30T10:08:45.399Z,6.87
2018-12-30T10:11:22.949Z,4.57
2018-12-30T10:14:00.475Z,4.60
2018-12-30T10:16:37.946Z,4.47
2018-12-30T10:19:15.530Z,3.30
2018-12-30T10:21:53.027Z,2.47
2018-12-30T10:24:30.527Z,4.03
2018-12-30T10:27:08.006Z,7.03
2018-12-30T10:29:45.573Z,6.37
2018-12-30T10:32:23.736Z,3.77
2018-12-30T10:35:01.231Z,3.77
2018-12-30T10:37:38.778Z,5.03
2018-12-30T10:40:16.272Z,5.90
2018-12-30T10:42:53.788Z,4.67
2018-12-30T10:45:31.267Z,4.33
2018-12-30T10:48:08.760Z,4.37
2018-12-30T10:50:46.245Z,5.00
2018-12-30T10:53:23.977Z,7.17
2018-12-30T10:56:01.463Z,2.90
2018-12-30T10:58:38.967Z,4.30
2018-12-30T11:01:16.444Z,5.17
2018-12-30T11:03:53.963Z,4.97
2018-12-30T11:06:31.455Z,5.23
2018-12-30T11:09:10.692Z,3.63
2018-12-30T11:11:48.839Z,2.97
2018-12-30T11:14:25.728Z,4.33
2018-12-30T11:17:03.220Z,4.90
2018-12-30T11:19:40.758Z,2.97
2018-12-30T11:22:18.241Z,4.07
2018-12-30T11:24:55.791Z,3.60
2018-12-30T11:27:33.295Z,4.70
2018-12-30T11:30:11.899Z,6.13
2018-12-30T11:32:49.434Z,4.53
2018-12-30T11:35:27.530Z,4.83
2018-12-30T11:38:05.081Z,5.83
2018-12-30T11:40:42.562Z,3.83
2018-12-30T11:43:20.159Z,4.00
2018-12-30T11:45:57.659Z,4.73
2018-12-30T11:48:35.291Z,2.80
2018-12-30T11:51:12.790Z,6.57
2018-12-30T11:53:50.345Z,3.23
2018-12-30T11:56:27.836Z,4.60
2018-12-30T11:59:05.396Z,4.17
2018-12-30T12:01:42.915Z,2.87
2018-12-30T12:04:20.451Z,3.37
2018-12-30T12:06:58.032Z,2.00
2018-12-30T12:09:35.544Z,2.90
2018-12-30T12:12:13.043Z,3.13
2018-12-30T12:14:50.522Z,4.00
2018-12-30T12:17:28.026Z,3.87
2018-12-30T12:20:06.940Z,4.33
2018-12-30T12:22:44.380Z,2.37
2018-12-30T12:25:21.883Z,3.63
2018-12-30T12:27:59.365Z,4.63
2018-12-30T12:30:37.007Z,4.03
2018-12-30T12:33:14.480Z,4.43
2018-12-30T12:35:54.591Z,3.83
2018-12-30T12:38:32.110Z,5.17
2018-12-30T12:41:09.598Z,2.60
2018-12-30T12:43:47.787Z,3.50
2018-12-30T12:46:25.819Z,3.27
2018-12-30T12:49:03.382Z,3.83
2018-12-30T12:51:40.862Z,5.80
2018-12-30T12:54:18.442Z,3.30
2018-12-30T12:56:55.951Z,4.57
2018-12-30T12:59:33.548Z,3.67
2018-12-30T13:02:10.960Z,3.50
2018-12-30T13:04:48.478Z,4.07
2018-12-30T13:07:26.088Z,4.80
2018-12-30T13:10:03.601Z,3.10
2018-12-30T13:12:41.095Z,5.60
2018-12-30T13:15:18.611Z,2.60
2018-12-30T13:17:56.098Z,3.60
2018-12-30T13:20:33.586Z,4.73
2018-12-30T13:23:11.068Z,3.90
2018-12-30T13:25:48.568Z,4.40
2018-12-30T13:28:26.080Z,4.73
2018-12-30T13:31:03.598Z,3.37
2018-12-30T13:33:41.119Z,3.93
2018-12-30T13:36:19.870Z,5.03
2018-12-30T13:38:57.383Z,3.90
2018-12-30T13:41:34.884Z,4.23
2018-12-30T13:44:12.397Z,4.03
2018-12-30T13:46:49.894Z,4.30
2018-12-30T13:49:32.061Z,2.90
2018-12-30T13:52:09.627Z,3.50
2018-12-30T13:54:47.834Z,2.63
2018-12-30T13:57:24.675Z,3.83
2018-12-30T14:00:02.183Z,2.80
2018-12-30T14:02:39.769Z,3.00
2018-12-30T14:05:17.307Z,3.20
2018-12-30T14:07:54.807Z,3.27
2018-12-30T14:10:32.312Z,4.67
2018-12-30T14:13:09.815Z,3.20
2018-12-30T14:15:51.076Z,4.60
2018-12-30T14:18:25.005Z,3.37
2018-12-30T14:21:02.536Z,2.50
2018-12-30T14:23:40.047Z,1.93
2018-12-30T14:26:17.632Z,7.23
2018-12-30T14:28:55.105Z,4.17
2018-12-30T14:31:32.627Z,3.90
2018-12-30T14:34:10.159Z,5.30
2018-12-30T14:36:47.698Z,2.67
2018-12-30T14:39:25.211Z,3.50
2018-12-30T14:42:02.724Z,4.30
2018-12-30T14:44:40.280Z,3.70
2018-12-30T14:47:17.827Z,2.57
2018-12-30T14:49:55.597Z,3.70
2018-12-30T14:52:33.406Z,3.57
2018-12-30T14:55:14.421Z,5.60
2018-12-30T14:57:51.916Z,4.20
2018-12-30T15:00:29.448Z,2.30
2018-12-30T15:03:07.076Z,3.63
2018-12-30T15:05:44.609Z,3.40
2018-12-30T15:08:22.120Z,3.53
2018-12-30T15:10:59.636Z,4.90
2018-12-30T15:13:37.141Z,2.40
2018-12-30T15:16:14.661Z,2.20
2018-12-30T15:18:52.193Z,1.90
2018-12-30T15:21:29.729Z,4.40
2018-12-30T15:24:07.250Z,2.47
2018-12-30T15:26:44.802Z,2.50
2018-12-30T15:29:22.325Z,1.97
2018-12-30T15:31:59.889Z,2.53
2018-12-30T15:34:37.403Z,2.73
2018-12-30T15:37:14.939Z,2.23
2018-12-30T15:39:52.459Z,1.83
2018-12-30T15:42:29.957Z,1.33
2018-12-30T15:45:07.679Z,1.47
2018-12-30T15:47:45.179Z,0.80
2018-12-30T15:50:22.754Z,0.80
2018-12-30T15:53:00.264Z,0.90
2018-12-30T15:55:37.801Z,0.60
2018-12-30T15:58:15.321Z,1.53
2018-12-30T16:00:52.843Z,1.57
2018-12-30T16:03:30.330Z,1.70
2018-12-30T16:06:07.828Z,1.73
2018-12-30T16:08:45.397Z,1.33
2018-12-30T16:11:23.161Z,1.30
2018-12-30T16:14:00.731Z,2.40
2018-12-30T16:16:38.293Z,2.10
2018-12-30T16:19:15.772Z,1.40
2018-12-30T16:21:53.376Z,1.63
2018-12-30T16:24:30.873Z,1.43
2018-12-30T16:27:08.362Z,0.97
2018-12-30T16:29:45.894Z,2.47
2018-12-30T16:32:23.417Z,0.80
2018-12-30T16:35:00.896Z,1.30
2018-12-30T16:37:38.405Z,1.50
2018-12-30T16:40:15.946Z,2.40
2018-12-30T16:42:53.461Z,2.43
2018-12-30T16:45:31.061Z,1.87
2018-12-30T16:48:08.599Z,2.30
2018-12-30T16:50:46.099Z,1.67
2018-12-30T16:53:23.577Z,1.80
2018-12-30T16:56:01.146Z,2.10
2018-12-30T16:58:38.736Z,1.00
2018-12-30T17:01:16.248Z,1.53
2018-12-30T17:03:53.757Z,1.50
2018-12-30T17:06:34.087Z,1.30
2018-12-30T17:09:10.305Z,2.37
2018-12-30T17:11:47.833Z,1.60
2018-12-30T17:14:25.358Z,1.63
2018-12-30T17:17:02.917Z,1.63
2018-12-30T17:19:40.434Z,2.30
2018-12-30T17:22:17.955Z,2.03
2018-12-30T17:24:55.431Z,2.33
2018-12-30T17:27:32.947Z,1.67
2018-12-30T17:30:12.195Z,1.77
2018-12-30T17:32:49.727Z,1.83
2018-12-30T17:35:27.832Z,1.10
2018-12-30T17:38:05.568Z,1.83
2018-12-30T17:40:43.051Z,1.10
2018-12-30T17:43:20.575Z,1.37
2018-12-30T17:45:58.204Z,2.73
2018-12-30T17:48:35.713Z,1.50
2018-12-30T17:51:13.560Z,1.20
2018-12-30T17:53:51.066Z,0.80
2018-12-30T17:56:28.672Z,1.50
2018-12-30T17:59:06.233Z,2.13
2018-12-30T18:01:43.746Z,1.70
2018-12-30T18:04:21.235Z,1.00
2018-12-30T18:06:59.543Z,1.67
2018-12-30T18:09:37.241Z,2.30
2018-12-30T18:12:14.879Z,1.50
2018-12-30T18:14:52.568Z,1.77
2018-12-30T18:17:30.215Z,1.03
2018-12-30T18:20:08.033Z,1.13
2018-12-30T18:22:45.539Z,1.90
2018-12-30T18:25:23.060Z,1.57
2018-12-30T18:28:00.548Z,0.70
2018-12-30T18:30:38.062Z,1.50
2018-12-30T18:33:15.642Z,1.13
2018-12-30T18:35:53.133Z,1.73
2018-12-30T18:38:30.640Z,1.83
2018-12-30T18:41:08.125Z,2.00
2018-12-30T18:43:45.649Z,1.73
2018-12-30T18:46:23.152Z,1.47
2018-12-30T18:49:00.649Z,1.90
2018-12-30T18:51:38.222Z,1.83
2018-12-30T18:54:16.636Z,1.20
2018-12-30T18:56:54.357Z,1.53
2018-12-30T18:59:31.869Z,0.93
2018-12-30T19:02:09.372Z,1.27
2018-12-30T19:04:46.863Z,1.20
2018-12-30T19:07:24.358Z,1.33
2018-12-30T19:10:01.864Z,1.93
2018-12-30T19:12:39.365Z,1.70
2018-12-30T19:15:16.843Z,3.97
2018-12-30T19:17:54.500Z,2.50
2018-12-30T19:20:32.083Z,3.57
2018-12-30T19:23:09.732Z,2.00
2018-12-30T19:25:47.579Z,4.13
2018-12-30T19:28:25.207Z,3.07
2018-12-30T19:31:02.794Z,1.77
2018-12-30T19:33:40.424Z,1.83
2018-12-30T19:36:17.980Z,3.37
2018-12-30T19:38:55.906Z,1.80
2018-12-30T19:41:33.496Z,1.20
2018-12-30T19:44:11.160Z,1.53
2018-12-30T19:46:49.279Z,1.00
2018-12-30T19:49:26.804Z,1.23
2018-12-30T19:52:04.399Z,0.70
2018-12-30T19:54:41.928Z,1.73
2018-12-30T19:57:20.018Z,1.80
2018-12-30T19:59:57.514Z,1.27
2018-12-30T20:02:35.045Z,1.97
2018-12-30T20:05:12.612Z,1.60
2018-12-30T20:07:50.202Z,0.73
2018-12-30T20:10:27.756Z,0.80
2018-12-30T20:13:09.016Z,1.67
2018-12-30T20:15:42.896Z,0.83
2018-12-30T20:18:20.532Z,0.50
2018-12-30T20:20:58.109Z,0.50
2018-12-30T20:23:35.759Z,0.60
2018-12-30T20:26:13.352Z,0.83
2018-12-30T20:28:50.956Z,0.90
2018-12-30T20:31:28.625Z,0.50
2018-12-30T20:34:06.287Z,0.57
2018-12-30T20:36:43.892Z,0.70
2018-12-30T20:39:21.435Z,0.80
2018-12-30T20:41:58.925Z,0.60
2018-12-30T20:44:36.478Z,1.00
2018-12-30T20:47:14.046Z,0.67
2018-12-30T20:49:51.778Z,1.00
2018-12-30T20:52:29.326Z,0.87
2018-12-30T20:55:06.876Z,1.10
2018-12-30T20:57:44.419Z,1.27
2018-12-30T21:00:21.903Z,0.90
2018-12-30T21:02:59.427Z,0.70
2018-12-30T21:05:36.991Z,0.67
2018-12-30T21:08:14.510Z,0.70
2018-12-30T21:10:52.022Z,0.60
2018-12-30T21:13:29.629Z,0.40
2018-12-30T21:16:07.125Z,0.60
2018-12-30T21:18:44.626Z,0.60
2018-12-30T21:21:22.111Z,1.53
2018-12-30T21:23:59.621Z,1.60
2018-12-30T21:26:45.220Z,2.33
2018-12-30T21:29:15.357Z,1.50
2018-12-30T21:31:52.843Z,2.20
2018-12-30T21:34:30.361Z,1.60
2018-12-30T21:37:07.924Z,1.87
2018-12-30T21:39:45.330Z,1.90
2018-12-30T21:42:22.810Z,1.23
2018-12-30T21:45:00.322Z,1.83
2018-12-30T21:47:37.802Z,1.83
2018-12-30T21:50:15.300Z,1.30
2018-12-30T21:52:52.773Z,2.57
2018-12-30T21:55:30.241Z,3.33
2018-12-30T21:58:07.738Z,1.67
2018-12-30T22:00:45.217Z,1.27
2018-12-30T22:03:22.770Z,1.20
2018-12-30T22:06:00.248Z,1.13
2018-12-30T22:08:37.752Z,0.63
2018-12-30T22:11:15.228Z,1.00
2018-12-30T22:13:52.720Z,2.67
2018-12-30T22:16:30.198Z,1.73
2018-12-30T22:19:07.713Z,2.10
2018-12-30T22:21:45.187Z,0.80
2018-12-30T22:24:22.681Z,1.50
2018-12-30T22:27:00.192Z,1.40
2018-12-30T22:29:37.681Z,2.17
2018-12-30T22:32:15.231Z,1.90
2018-12-30T22:34:52.741Z,1.30
2018-12-30T22:37:30.224Z,2.00
2018-12-30T22:40:08.765Z,1.27
2018-12-30T22:42:46.247Z,1.50
2018-12-30T22:45:23.746Z,1.60
2018-12-30T22:48:01.227Z,1.00
2018-12-30T22:50:38.734Z,1.40
2018-12-30T22:53:16.239Z,0.73
2018-12-30T22:55:53.717Z,1.10
2018-12-30T22:58:31.234Z,1.07
2018-12-30T23:01:14.846Z,1.20
2018-12-30T23:03:52.345Z,0.97
2018-12-30T23:06:29.822Z,0.70
2018-12-30T23:09:09.041Z,0.60
2018-12-30T23:11:46.528Z,0.77
2018-12-30T23:14:24.024Z,0.63
2018-12-30T23:17:01.511Z,1.13
2018-12-30T23:19:39.003Z,1.47
2018-12-30T23:22:16.488Z,1.00
2018-12-30T23:24:53.998Z,0.90
2018-12-30T23:27:31.492Z,0.77
2018-12-30T23:30:09.260Z,0.93
2018-12-30T23:32:46.745Z,0.60
2018-12-30T23:35:24.252Z,1.30
2018-12-30T23:38:01.739Z,0.70
2018-12-30T23:40:39.268Z,1.07
2018-12-30T23:43:16.750Z,1.20
2018-12-30T23:45:54.256Z,1.23
2018-12-30T23:48:31.756Z,0.87
2018-12-30T23:51:09.270Z,0.97
2018-12-30T23:53:46.764Z,2.03
2018-12-30T23:56:24.251Z,1.77
2018-12-30T23:59:01.761Z,1.73
